Time;durP1;ratioP1;P1;durP2;ratioP2;P2;SDS_P1;SDS_P2;PMS_P1;PMS_P2;Temp;Humidity;BMP_temperature;BMP_pressure;BME280_temperature;BME280_humidity;BME280_pressure;Samples;Min_cycle;Max_cycle;Signal;HPM_P1;HPM_P2
2023/09/17 00:00:37;;;;;;;6.27;5.77;;;16.80;99.90;;;;;;5074552;28;20175;-78
2023/09/17 00:03:03;;;;;;;5.90;5.50;;;16.80;99.90;;;;;;5075060;28;20634;-80
2023/09/17 00:05:32;;;;;;;5.47;5.07;;;16.70;99.90;;;;;;5075010;28;20179;-79
2023/09/17 00:07:57;;;;;;;5.47;5.17;;;16.40;99.90;;;;;;5087515;28;20183;-79
2023/09/17 00:10:23;;;;;;;6.20;5.70;;;16.70;99.90;;;;;;5075213;28;20211;-79
2023/09/17 00:12:53;;;;;;;5.97;5.47;;;16.70;99.90;;;;;;5075280;28;20173;-80
2023/09/17 00:15:20;;;;;;;6.67;5.60;;;16.70;99.90;;;;;;5056925;28;20542;-79
2023/09/17 00:17:46;;;;;;;5.50;5.10;;;16.60;99.90;;;;;;5083186;28;20186;-79
2023/09/17 00:20:12;;;;;;;5.80;5.33;;;16.60;99.90;;;;;;5077476;28;20179;-77
2023/09/17 00:22:39;;;;;;;5.60;5.20;;;16.60;99.90;;;;;;5079551;28;20175;-79
2023/09/17 00:25:05;;;;;;;5.93;5.43;;;16.60;99.90;;;;;;5083550;28;20182;-79
2023/09/17 00:27:32;;;;;;;6.07;5.57;;;16.60;99.90;;;;;;5075776;28;20182;-79
2023/09/17 00:29:58;;;;;;;5.70;5.30;;;16.60;99.90;;;;;;5074235;28;20681;-80
2023/09/17 00:32:24;;;;;;;5.50;5.10;;;16.60;99.90;;;;;;5074478;28;20228;-79
2023/09/17 00:34:50;;;;;;;5.50;5.10;;;16.50;99.90;;;;;;5074422;28;21095;-79
2023/09/17 00:37:16;;;;;;;5.80;5.40;;;16.50;99.90;;;;;;5074535;28;20504;-78
2023/09/17 00:39:42;;;;;;;6.40;5.80;;;16.40;99.90;;;;;;5074523;28;20179;-79
2023/09/17 00:42:08;;;;;;;5.93;5.50;;;16.40;99.90;;;;;;5056369;28;20175;-78
2023/09/17 00:44:34;;;;;;;6.50;5.60;;;16.30;99.90;;;;;;5074258;28;20178;-79
2023/09/17 00:47:02;;;;;;;6.23;5.10;;;16.30;99.90;;;;;;5073843;28;20169;-79
2023/09/17 00:49:29;;;;;;;6.07;5.60;;;16.20;99.90;;;;;;5074039;28;20294;-79
2023/09/17 00:51:55;;;;;;;6.17;5.57;;;16.20;99.90;;;;;;5055536;28;20203;-79
2023/09/17 00:54:24;;;;;;;5.70;5.13;;;16.30;99.90;;;;;;5074404;28;20179;-79
2023/09/17 00:56:51;;;;;;;6.37;5.77;;;16.20;99.90;;;;;;5056347;28;20218;-79
2023/09/17 00:59:17;;;;;;;5.63;5.23;;;16.20;99.90;;;;;;5073960;28;20211;-77
2023/09/17 01:01:44;;;;;;;6.87;6.27;;;16.20;99.90;;;;;;5074302;28;20208;-78
2023/09/17 01:04:12;;;;;;;5.90;5.50;;;16.20;99.90;;;;;;5074727;28;20230;-81
2023/09/17 01:06:40;;;;;;;6.90;6.30;;;16.20;99.90;;;;;;5074414;28;20178;-80
2023/09/17 01:09:09;;;;;;;6.43;5.90;;;16.20;99.90;;;;;;5073625;28;20200;-78
2023/09/17 01:11:38;;;;;;;5.40;5.00;;;16.20;99.90;;;;;;5073635;28;20576;-78
2023/09/17 01:14:12;;;;;;;6.40;5.90;;;16.20;99.90;;;;;;5074233;28;20205;-80
2023/09/17 01:16:42;;;;;;;5.93;5.30;;;16.20;99.90;;;;;;5074165;28;20159;-77
2023/09/17 01:19:38;;;;;;;6.67;5.77;;;16.20;99.90;;;;;;5073331;28;20164;-81
2023/09/17 01:22:21;;;;;;;6.07;5.67;;;16.20;99.90;;;;;;4994609;28;20185;-78
2023/09/17 01:25:11;;;;;;;6.13;5.63;;;16.20;99.90;;;;;;4993135;28;20685;-77
2023/09/17 01:27:39;;;;;;;6.20;5.60;;;16.20;99.90;;;;;;4992378;28;20177;-77
2023/09/17 01:30:15;;;;;;;6.10;5.70;;;16.20;99.90;;;;;;4994671;28;20744;-78
2023/09/17 01:32:42;;;;;;;6.57;6.07;;;16.20;99.90;;;;;;4994976;28;20193;-79
2023/09/17 01:35:13;;;;;;;6.43;5.90;;;16.20;99.90;;;;;;4993353;28;20342;-78
2023/09/17 01:37:43;;;;;;;6.10;5.70;;;16.20;99.90;;;;;;4992151;28;20657;-79
2023/09/17 01:40:14;;;;;;;6.37;5.87;;;16.20;99.90;;;;;;4992339;28;20539;-79
2023/09/17 01:42:46;;;;;;;7.27;6.00;;;16.20;99.90;;;;;;5004352;28;20151;-78
2023/09/17 01:45:16;;;;;;;9.33;6.40;;;16.20;99.90;;;;;;4998630;28;20449;-79
2023/09/17 01:47:44;;;;;;;6.57;6.07;;;16.20;99.90;;;;;;4996521;28;20174;-79
2023/09/17 01:50:15;;;;;;;6.93;6.20;;;16.20;99.90;;;;;;4997590;28;20209;-80
2023/09/17 01:52:43;;;;;;;7.00;6.40;;;16.20;99.90;;;;;;4998751;28;20187;-78
2023/09/17 01:55:09;;;;;;;6.87;6.37;;;16.20;99.90;;;;;;5011608;28;20186;-80
2023/09/17 01:57:35;;;;;;;6.47;5.90;;;16.20;99.90;;;;;;5021444;28;20184;-80
2023/09/17 02:00:14;;;;;;;6.53;6.13;;;16.20;99.90;;;;;;5073912;28;20182;-80
2023/09/17 02:02:46;;;;;;;7.03;6.27;;;16.20;99.90;;;;;;5073530;28;20247;-80
2023/09/17 02:05:14;;;;;;;6.20;5.80;;;16.20;99.90;;;;;;5073242;28;20176;-78
2023/09/17 02:07:40;;;;;;;7.10;6.50;;;16.20;99.90;;;;;;5055823;28;20173;-79
2023/09/17 02:10:06;;;;;;;6.97;6.20;;;16.20;99.90;;;;;;5074487;28;20225;-80
2023/09/17 02:12:32;;;;;;;6.77;6.20;;;16.20;99.90;;;;;;5073969;28;20171;-79
2023/09/17 02:14:58;;;;;;;5.80;5.40;;;16.30;99.90;;;;;;5078874;28;20171;-80
2023/09/17 02:17:23;;;;;;;7.00;6.30;;;16.30;99.90;;;;;;5089500;28;20507;-80
2023/09/17 02:19:49;;;;;;;6.33;5.93;;;16.40;99.90;;;;;;5056583;28;20635;-80
2023/09/17 02:22:15;;;;;;;6.87;5.90;;;16.40;99.90;;;;;;5073495;28;20180;-80
2023/09/17 02:24:40;;;;;;;7.10;6.60;;;16.40;99.90;;;;;;5074840;28;20213;-79
2023/09/17 02:27:08;;;;;;;6.73;6.23;;;16.30;99.90;;;;;;5076860;28;20195;-79
2023/09/17 02:29:34;;;;;;;6.53;6.03;;;16.30;99.90;;;;;;5076825;28;20207;-80
2023/09/17 02:32:00;;;;;;;6.87;6.27;;;16.30;99.90;;;;;;5076802;28;20193;-78
2023/09/17 02:34:26;;;;;;;6.80;6.20;;;16.30;99.90;;;;;;5077110;28;20175;-77
2023/09/17 02:36:51;;;;;;;9.93;6.47;;;16.30;99.90;;;;;;5076897;28;20620;-79
2023/09/17 02:39:17;;;;;;;7.60;6.50;;;16.50;99.90;;;;;;5077337;28;20546;-79
2023/09/17 02:41:43;;;;;;;9.57;6.77;;;16.30;99.90;;;;;;5076647;28;20210;-79
2023/09/17 02:44:09;;;;;;;7.37;6.60;;;16.30;99.90;;;;;;5076955;28;20171;-79
2023/09/17 02:46:35;;;;;;;9.20;6.97;;;16.30;99.90;;;;;;5076604;28;20647;-79
2023/09/17 02:49:00;;;;;;;6.60;6.10;;;16.30;99.90;;;;;;5076679;28;20619;-80
2023/09/17 02:51:27;;;;;;;6.70;6.03;;;16.20;99.90;;;;;;5075860;28;20217;-80
2023/09/17 02:53:53;;;;;;;7.43;6.73;;;16.20;99.90;;;;;;5075706;28;20654;-78
2023/09/17 02:56:20;;;;;;;6.90;6.20;;;16.20;99.90;;;;;;5076277;28;20168;-80
2023/09/17 02:58:46;;;;;;;6.80;6.30;;;16.20;99.90;;;;;;5081099;28;20178;-77
2023/09/17 03:01:17;;;;;;;6.47;5.97;;;16.20;99.90;;;;;;5080743;28;20183;-80
2023/09/17 03:03:46;;;;;;;5.53;5.13;;;16.30;99.90;;;;;;5088309;28;20171;-79
2023/09/17 03:06:12;;;;;;;5.67;5.03;;;16.20;99.90;;;;;;5081530;28;20179;-78
2023/09/17 03:08:42;;;;;;;6.40;5.80;;;16.20;99.90;;;;;;5076092;28;20287;-79
2023/09/17 03:11:13;;;;;;;5.10;4.80;;;16.10;99.90;;;;;;5076856;28;20255;-78
2023/09/17 03:13:46;;;;;;;5.53;5.13;;;16.00;99.90;;;;;;5076428;28;20285;-80
2023/09/17 03:16:15;;;;;;;5.57;5.17;;;16.00;99.90;;;;;;5076024;28;20172;-79
2023/09/17 03:18:42;;;;;;;6.20;5.50;;;15.90;99.90;;;;;;5081177;28;20184;-79
2023/09/17 03:21:09;;;;;;;5.23;4.87;;;15.80;99.90;;;;;;5068880;28;20530;-78
2023/09/17 03:23:35;;;;;;;8.00;5.57;;;15.80;99.90;;;;;;5076325;28;20171;-81
2023/09/17 03:26:03;;;;;;;5.73;5.37;;;15.80;99.90;;;;;;5057459;28;20184;-80
2023/09/17 03:28:32;;;;;;;5.60;5.20;;;15.80;99.90;;;;;;5076717;28;20771;-80
2023/09/17 03:30:59;;;;;;;5.60;5.20;;;15.70;99.90;;;;;;5094730;28;20193;-80
2023/09/17 03:33:25;;;;;;;5.13;4.73;;;15.70;99.90;;;;;;5068321;28;20181;-79
2023/09/17 03:35:51;;;;;;;5.77;5.37;;;15.70;99.90;;;;;;5079891;28;20233;-79
2023/09/17 03:38:18;;;;;;;6.33;5.20;;;15.60;99.90;;;;;;5076308;28;20168;-78
2023/09/17 03:40:44;;;;;;;5.50;5.10;;;15.60;99.90;;;;;;5077491;28;20212;-80
2023/09/17 03:43:10;;;;;;;6.00;5.50;;;15.60;99.90;;;;;;5088200;28;20166;-81
2023/09/17 03:45:36;;;;;;;6.20;5.63;;;15.60;99.90;;;;;;5077065;28;20173;-78
2023/09/17 03:48:04;;;;;;;5.67;5.30;;;15.60;99.90;;;;;;5075176;28;20175;-78
2023/09/17 03:50:30;;;;;;;5.73;5.33;;;15.60;99.90;;;;;;5075442;28;20250;-78
2023/09/17 03:52:58;;;;;;;5.60;5.20;;;15.60;99.90;;;;;;5075328;28;20208;-79
2023/09/17 03:55:25;;;;;;;5.97;5.40;;;15.60;99.90;;;;;;5074878;28;20177;-78
2023/09/17 03:57:51;;;;;;;6.00;5.50;;;15.60;99.90;;;;;;5075139;28;20171;-79
2023/09/17 04:00:18;;;;;;;5.67;5.27;;;15.60;99.90;;;;;;5074926;28;20627;-79
2023/09/17 04:02:44;;;;;;;5.73;5.33;;;15.50;99.90;;;;;;5075321;28;20180;-79
2023/09/17 04:05:12;;;;;;;5.70;5.30;;;15.50;99.90;;;;;;5075497;28;20217;-79
2023/09/17 04:07:39;;;;;;;5.80;5.30;;;15.50;99.90;;;;;;5075364;28;20259;-81
2023/09/17 04:10:06;;;;;;;6.07;5.47;;;15.50;99.90;;;;;;5074171;28;20212;-79
2023/09/17 04:12:41;;;;;;;6.23;5.73;;;15.50;99.90;;;;;;5075305;28;20634;-81
2023/09/17 04:15:20;;;;;;;5.10;4.80;;;15.50;99.90;;;;;;5074856;28;20177;-79
2023/09/17 04:17:47;;;;;;;5.67;5.10;;;15.50;99.90;;;;;;5075673;28;20166;-80
2023/09/17 04:20:18;;;;;;;5.43;4.93;;;15.50;99.90;;;;;;5075650;28;20660;-79
2023/09/17 04:22:46;;;;;;;5.70;5.37;;;15.50;99.90;;;;;;5073914;28;20157;-81
2023/09/17 04:25:13;;;;;;;5.87;5.47;;;15.50;99.90;;;;;;5074498;28;20585;-78
2023/09/17 04:27:43;;;;;;;6.30;5.70;;;15.50;99.90;;;;;;5074401;28;20224;-79
2023/09/17 04:30:10;;;;;;;5.60;5.20;;;15.40;99.90;;;;;;5074950;28;20666;-78
2023/09/17 04:32:37;;;;;;;6.40;5.90;;;15.40;99.90;;;;;;5074647;28;20171;-77
2023/09/17 04:35:07;;;;;;;5.90;5.50;;;15.40;99.90;;;;;;5074517;28;20222;-78
2023/09/17 04:37:38;;;;;;;5.97;5.43;;;15.40;99.90;;;;;;5075502;28;20549;-79
2023/09/17 04:40:11;;;;;;;7.07;6.50;;;15.50;99.90;;;;;;5089348;28;20197;-78
2023/09/17 04:42:38;;;;;;;7.60;5.40;;;15.40;99.90;;;;;;5082932;28;20179;-77
2023/09/17 04:45:05;;;;;;;6.27;5.67;;;15.50;99.90;;;;;;5057177;28;20187;-78
2023/09/17 04:47:35;;;;;;;5.77;5.37;;;15.50;99.90;;;;;;5074013;28;20176;-81
2023/09/17 04:50:07;;;;;;;7.00;5.33;;;15.50;99.90;;;;;;5074415;28;20219;-79
2023/09/17 04:52:34;;;;;;;6.27;5.80;;;15.50;99.90;;;;;;5074214;28;20155;-80
2023/09/17 04:54:59;;;;;;;5.80;5.30;;;15.40;99.90;;;;;;5076481;28;20171;-78
2023/09/17 04:57:25;;;;;;;6.33;5.90;;;15.40;99.90;;;;;;5089699;28;20261;-79
2023/09/17 04:59:51;;;;;;;6.20;5.70;;;15.50;99.90;;;;;;5074145;28;20704;-80
2023/09/17 05:02:17;;;;;;;6.17;5.67;;;15.50;99.90;;;;;;5056559;28;20183;-81
2023/09/17 05:04:43;;;;;;;6.20;5.63;;;15.50;99.90;;;;;;5082330;28;20206;-79
2023/09/17 05:07:09;;;;;;;5.90;5.50;;;15.50;99.90;;;;;;5091807;28;20172;-79
2023/09/17 05:09:34;;;;;;;6.43;5.93;;;15.40;99.90;;;;;;5085309;28;20221;-78
2023/09/17 05:12:00;;;;;;;6.60;6.00;;;15.40;99.90;;;;;;5073868;28;20178;-78
2023/09/17 05:14:26;;;;;;;7.80;5.90;;;15.40;99.90;;;;;;5074037;28;20186;-80
2023/09/17 05:16:52;;;;;;;6.90;6.40;;;15.40;99.90;;;;;;5074028;28;20645;-78
2023/09/17 05:19:17;;;;;;;7.00;6.47;;;15.40;99.90;;;;;;5073691;28;20175;-80
2023/09/17 05:21:43;;;;;;;6.90;6.27;;;15.40;99.90;;;;;;5073571;28;20176;-78
2023/09/17 05:24:09;;;;;;;7.13;6.43;;;15.40;99.90;;;;;;5073444;28;20175;-78
2023/09/17 05:26:35;;;;;;;6.70;6.10;;;15.40;99.90;;;;;;5073703;28;20172;-80
2023/09/17 05:29:00;;;;;;;6.80;6.30;;;15.50;99.90;;;;;;5073891;28;20746;-78
2023/09/17 05:31:26;;;;;;;7.73;5.80;;;15.50;99.90;;;;;;5073450;28;20201;-79
2023/09/17 05:33:53;;;;;;;6.50;6.00;;;15.60;99.90;;;;;;5093562;28;20716;-77
2023/09/17 05:36:19;;;;;;;6.73;6.23;;;15.60;99.90;;;;;;5084642;28;20212;-80
2023/09/17 05:38:45;;;;;;;7.23;6.63;;;15.60;99.90;;;;;;5076804;28;20612;-80
2023/09/17 05:41:12;;;;;;;7.10;6.43;;;15.70;99.90;;;;;;5074488;28;20176;-82
2023/09/17 05:43:38;;;;;;;6.47;5.97;;;15.70;99.90;;;;;;5092394;28;20192;-79
2023/09/17 05:46:05;;;;;;;6.80;6.30;;;15.80;99.90;;;;;;5094816;28;20250;-79
2023/09/17 05:48:31;;;;;;;6.83;6.30;;;15.90;99.90;;;;;;5096080;28;20186;-76
2023/09/17 05:50:56;;;;;;;7.27;6.57;;;15.90;99.90;;;;;;5095261;28;20160;-79
2023/09/17 05:53:22;;;;;;;7.73;7.10;;;16.00;99.90;;;;;;5095961;28;20173;-78
2023/09/17 05:55:48;;;;;;;7.53;6.87;;;16.10;99.90;;;;;;5093525;28;20199;-79
2023/09/17 05:58:15;;;;;;;7.93;7.23;;;16.10;99.90;;;;;;5092997;28;20159;-79
2023/09/17 06:00:41;;;;;;;7.10;6.50;;;16.20;99.90;;;;;;5073655;28;20175;-78
2023/09/17 06:03:07;;;;;;;6.83;6.33;;;16.30;99.90;;;;;;5090780;28;20206;-78
2023/09/17 06:05:33;;;;;;;8.20;7.03;;;16.30;99.90;;;;;;5094372;28;20182;-79
2023/09/17 06:07:58;;;;;;;8.13;7.50;;;16.30;99.90;;;;;;5093201;28;20167;-79
2023/09/17 06:10:24;;;;;;;9.20;7.57;;;16.40;99.90;;;;;;5100850;28;20211;-77
2023/09/17 06:12:50;;;;;;;8.37;7.67;;;16.50;99.90;;;;;;5092051;28;20174;-77
2023/09/17 06:15:16;;;;;;;8.80;7.90;;;16.60;99.90;;;;;;5090144;28;20235;-77
2023/09/17 06:17:42;;;;;;;8.83;7.97;;;16.60;99.90;;;;;;5089820;28;20221;-77
2023/09/17 06:20:08;;;;;;;8.70;7.80;;;16.70;99.90;;;;;;5091022;28;20175;-78
2023/09/17 06:22:34;;;;;;;8.10;7.40;;;16.80;99.90;;;;;;5092304;28;20238;-78
2023/09/17 06:25:00;;;;;;;10.60;8.30;;;16.90;99.90;;;;;;5095206;28;20197;-78
2023/09/17 06:27:25;;;;;;;8.20;7.40;;;17.00;99.90;;;;;;5094641;28;20203;-80
2023/09/17 06:29:51;;;;;;;8.13;7.43;;;17.10;99.90;;;;;;5088910;28;20218;-78
2023/09/17 06:32:18;;;;;;;7.60;7.00;;;17.10;99.90;;;;;;5085582;28;20178;-80
2023/09/17 06:34:44;;;;;;;8.17;7.47;;;17.20;99.90;;;;;;5088474;28;20249;-81
2023/09/17 06:37:10;;;;;;;9.13;7.83;;;17.20;99.90;;;;;;5064901;28;20191;-80
2023/09/17 06:39:36;;;;;;;8.00;7.30;;;17.20;99.90;;;;;;5092554;28;20182;-81
2023/09/17 06:42:02;;;;;;;8.20;7.53;;;17.20;99.90;;;;;;5062112;28;20201;-81
2023/09/17 06:44:28;;;;;;;7.60;6.93;;;17.30;99.90;;;;;;5089885;28;20179;-80
2023/09/17 06:46:53;;;;;;;8.07;7.37;;;17.40;99.90;;;;;;5083932;28;20175;-79
2023/09/17 06:49:19;;;;;;;8.20;7.40;;;17.40;99.90;;;;;;5077438;28;20202;-79
2023/09/17 06:51:45;;;;;;;8.70;8.00;;;17.50;99.90;;;;;;5076510;28;20232;-78
2023/09/17 06:54:11;;;;;;;7.47;6.77;;;17.50;99.90;;;;;;5059057;28;20208;-79
2023/09/17 06:56:36;;;;;;;8.27;7.57;;;17.50;99.90;;;;;;5077231;28;20525;-79
2023/09/17 06:59:03;;;;;;;11.90;7.47;;;17.60;99.90;;;;;;5059398;28;20182;-79
2023/09/17 07:01:29;;;;;;;6.90;6.40;;;17.60;99.90;;;;;;5079232;28;20167;-79
2023/09/17 07:03:55;;;;;;;7.63;7.03;;;17.70;99.90;;;;;;5079866;28;20999;-78
2023/09/17 07:06:21;;;;;;;8.27;7.57;;;17.80;99.90;;;;;;5078863;28;20263;-79
2023/09/17 07:08:47;;;;;;;8.10;7.50;;;17.90;99.90;;;;;;5076972;28;20721;-78
2023/09/17 07:11:13;;;;;;;6.93;6.33;;;18.00;99.90;;;;;;5058048;28;20175;-79
2023/09/17 07:13:40;;;;;;;8.23;7.23;;;18.10;99.90;;;;;;5076185;28;20534;-79
2023/09/17 07:16:06;;;;;;;7.63;6.93;;;18.10;99.90;;;;;;5076805;28;20179;-80
2023/09/17 07:18:32;;;;;;;7.27;6.57;;;18.10;99.90;;;;;;5076679;28;20203;-79
2023/09/17 07:20:58;;;;;;;7.73;7.10;;;18.20;99.90;;;;;;5076199;28;20199;-78
2023/09/17 07:23:24;;;;;;;7.57;6.97;;;18.30;99.90;;;;;;5076021;28;20183;-76
2023/09/17 07:25:50;;;;;;;7.93;7.23;;;18.30;99.90;;;;;;5076087;28;20201;-78
2023/09/17 07:28:16;;;;;;;9.13;8.07;;;18.40;99.90;;;;;;5060336;28;20179;-78
2023/09/17 07:30:42;;;;;;;8.30;7.60;;;18.50;99.90;;;;;;5078058;28;20231;-82
2023/09/17 07:33:08;;;;;;;7.93;7.13;;;18.50;99.90;;;;;;5080485;28;20174;-79
2023/09/17 07:35:37;;;;;;;7.40;6.80;;;18.60;99.90;;;;;;5079552;28;20276;-78
2023/09/17 07:38:03;;;;;;;7.60;6.90;;;18.60;99.90;;;;;;5078074;28;20163;-79
2023/09/17 07:40:29;;;;;;;7.90;7.10;;;18.70;99.90;;;;;;5076195;28;20171;-80
2023/09/17 07:42:55;;;;;;;7.83;7.03;;;18.70;99.90;;;;;;5076598;28;20214;-80
2023/09/17 07:45:20;;;;;;;6.73;6.23;;;18.90;99.90;;;;;;5076954;28;20240;-78
2023/09/17 07:47:46;;;;;;;6.90;6.30;;;18.90;99.90;;;;;;5078205;28;20171;-77
2023/09/17 07:50:12;;;;;;;7.07;6.47;;;18.90;99.90;;;;;;5077331;28;20234;-77
2023/09/17 07:52:40;;;;;;;7.07;6.37;;;19.00;99.90;;;;;;5076626;28;20167;-79
2023/09/17 07:55:08;;;;;;;7.63;7.03;;;19.00;99.90;;;;;;5078478;28;20183;-79
2023/09/17 07:57:34;;;;;;;7.73;7.07;;;19.10;99.90;;;;;;5079555;28;20497;-79
2023/09/17 08:00:00;;;;;;;7.37;6.70;;;19.20;99.90;;;;;;5077735;28;20174;-80
2023/09/17 08:02:26;;;;;;;7.23;6.57;;;19.20;99.90;;;;;;5053412;28;20180;-79
2023/09/17 08:04:52;;;;;;;9.20;6.53;;;19.70;99.90;;;;;;5069275;28;20234;-82
2023/09/17 08:07:18;;;;;;;6.40;5.90;;;19.30;99.90;;;;;;5078531;28;20170;-81
2023/09/17 08:09:44;;;;;;;7.27;6.67;;;19.40;99.90;;;;;;5084938;28;20199;-79
2023/09/17 08:12:10;;;;;;;7.77;7.00;;;19.50;99.90;;;;;;5080069;28;20181;-81
2023/09/17 08:14:36;;;;;;;8.03;7.20;;;19.50;99.90;;;;;;5089008;28;20179;-79
2023/09/17 08:17:04;;;;;;;7.60;6.93;;;19.60;99.90;;;;;;5063309;28;20179;-81
2023/09/17 08:19:30;;;;;;;9.03;8.23;;;19.60;99.90;;;;;;5061985;28;20183;-80
2023/09/17 08:21:56;;;;;;;9.70;8.70;;;19.70;99.90;;;;;;5088814;28;20168;-81
2023/09/17 08:24:25;;;;;;;7.30;6.60;;;19.80;99.90;;;;;;5078397;28;20721;-81
2023/09/17 08:26:52;;;;;;;8.60;7.33;;;19.90;99.90;;;;;;5085400;28;20183;-80
2023/09/17 08:29:21;;;;;;;7.57;6.80;;;20.00;99.90;;;;;;5092395;28;20190;-81
2023/09/17 08:31:47;;;;;;;6.57;5.97;;;20.10;99.90;;;;;;5077203;28;20174;-82
2023/09/17 08:34:14;;;;;;;7.03;6.37;;;20.10;99.90;;;;;;5078647;28;20175;-81
2023/09/17 08:36:39;;;;;;;7.30;6.67;;;20.20;99.90;;;;;;5076816;28;20237;-80
2023/09/17 08:39:08;;;;;;;6.67;6.27;;;20.30;99.90;;;;;;5075380;28;20574;-76
2023/09/17 08:41:51;;;;;;;6.60;5.97;;;20.30;99.90;;;;;;5074664;28;20186;-82
2023/09/17 08:44:18;;;;;;;6.63;6.03;;;20.40;99.90;;;;;;5076889;28;20199;-79
2023/09/17 08:46:45;;;;;;;6.60;6.10;;;20.50;99.90;;;;;;5080434;28;20229;-79
2023/09/17 08:49:11;;;;;;;7.30;6.60;;;20.50;99.90;;;;;;5077149;28;20299;-80
2023/09/17 08:51:40;;;;;;;6.03;5.63;;;20.60;99.90;;;;;;5057259;28;20203;-77
2023/09/17 08:54:09;;;;;;;7.00;6.50;;;20.70;99.90;;;;;;5076810;28;20621;-79
2023/09/17 08:56:40;;;;;;;6.90;6.20;;;20.80;99.90;;;;;;5075475;28;20216;-79
2023/09/17 08:59:26;;;;;;;7.20;5.77;;;20.80;99.90;;;;;;5077772;28;20175;-79
2023/09/17 09:01:53;;;;;;;5.80;5.30;;;20.80;99.90;;;;;;5058142;28;20175;-79
2023/09/17 09:04:22;;;;;;;6.33;5.80;;;20.90;99.90;;;;;;5087083;28;20199;-78
2023/09/17 09:06:48;;;;;;;6.50;5.90;;;20.90;99.90;;;;;;5065537;28;20171;-80
2023/09/17 09:09:16;;;;;;;5.47;5.17;;;21.00;99.90;;;;;;5086767;28;20207;-79
2023/09/17 09:11:43;;;;;;;6.23;5.73;;;21.00;99.90;;;;;;5082143;28;20190;-77
2023/09/17 09:14:09;;;;;;;6.07;5.57;;;21.20;99.90;;;;;;5078051;28;20206;-78
2023/09/17 09:16:38;;;;;;;5.73;5.33;;;21.20;99.90;;;;;;5076088;28;20172;-79
2023/09/17 09:19:05;;;;;;;6.03;5.63;;;21.30;99.90;;;;;;5085790;28;20175;-81
2023/09/17 09:21:31;;;;;;;6.70;6.10;;;21.30;99.90;;;;;;5075050;28;20202;-78
2023/09/17 09:23:57;;;;;;;6.00;5.40;;;21.30;99.90;;;;;;5077499;28;20171;-79
2023/09/17 09:26:36;;;;;;;6.47;5.97;;;21.20;99.90;;;;;;5092013;28;20177;-78
2023/09/17 09:29:05;;;;;;;5.83;5.33;;;21.30;99.90;;;;;;5081599;28;20256;-78
2023/09/17 09:31:32;;;;;;;6.43;5.93;;;21.40;99.90;;;;;;5081417;28;20211;-78
2023/09/17 09:34:02;;;;;;;5.90;5.50;;;21.50;99.90;;;;;;5086739;28;20179;-79
2023/09/17 09:36:31;;;;;;;5.97;5.57;;;21.60;99.90;;;;;;5083643;28;20246;-79
2023/09/17 09:38:57;;;;;;;6.80;6.27;;;21.70;99.90;;;;;;5091911;28;20178;-79
2023/09/17 09:41:25;;;;;;;6.73;6.13;;;21.70;99.90;;;;;;5083485;28;20179;-79
2023/09/17 09:43:53;;;;;;;7.97;7.37;;;21.70;99.90;;;;;;5081144;28;20205;-78
2023/09/17 09:46:19;;;;;;;8.07;7.27;;;21.70;99.90;;;;;;5084854;28;20163;-80
2023/09/17 09:48:46;;;;;;;7.17;6.50;;;21.80;99.90;;;;;;5083069;28;20179;-78
2023/09/17 09:51:16;;;;;;;6.70;6.20;;;21.80;99.90;;;;;;5072655;28;20214;-78
2023/09/17 09:53:42;;;;;;;6.20;5.70;;;21.90;99.90;;;;;;5085409;28;20182;-80
2023/09/17 09:56:08;;;;;;;5.77;5.37;;;21.90;99.90;;;;;;5080675;28;20171;-80
2023/09/17 09:58:34;;;;;;;5.93;5.50;;;21.90;99.90;;;;;;5084374;28;20163;-79
2023/09/17 10:01:04;;;;;;;5.87;5.47;;;21.90;99.90;;;;;;5082688;28;20527;-80
2023/09/17 10:03:30;;;;;;;6.27;5.80;;;21.90;99.90;;;;;;5081938;28;20534;-80
2023/09/17 10:06:06;;;;;;;5.40;5.00;;;22.00;99.90;;;;;;5082028;28;20175;-86
2023/09/17 10:08:37;;;;;;;6.07;5.57;;;22.10;99.90;;;;;;5084235;28;20260;-86
2023/09/17 10:11:05;;;;;;;6.47;4.90;;;22.20;99.90;;;;;;5084753;28;20203;-83
2023/09/17 10:13:33;;;;;;;9.40;6.20;;;22.30;99.90;;;;;;5083044;28;20167;-85
2023/09/17 10:16:02;;;;;;;6.40;5.90;;;22.30;99.90;;;;;;5084154;28;20163;-84
2023/09/17 10:18:32;;;;;;;7.70;6.17;;;22.40;99.90;;;;;;5089058;28;20171;-85
2023/09/17 10:20:59;;;;;;;5.80;5.30;;;22.50;99.90;;;;;;5070979;28;20181;-86
2023/09/17 10:23:27;;;;;;;5.60;5.20;;;22.60;99.90;;;;;;5090235;28;20178;-86
2023/09/17 10:25:55;;;;;;;5.43;5.13;;;22.60;99.90;;;;;;5086531;28;20167;-86
2023/09/17 10:28:22;;;;;;;8.83;7.20;;;22.60;99.90;;;;;;5087011;28;20175;-83
2023/09/17 10:30:51;;;;;;;13.80;9.47;;;22.60;99.90;;;;;;5086050;28;20209;-86
2023/09/17 10:33:18;;;;;;;20.77;9.37;;;22.60;99.90;;;;;;5068741;28;20175;-89
2023/09/17 10:35:45;;;;;;;14.57;8.10;;;22.50;99.90;;;;;;5083806;28;20655;-85
2023/09/17 10:38:12;;;;;;;7.50;6.40;;;22.50;99.90;;;;;;5085514;28;20199;-85
2023/09/17 10:40:37;;;;;;;6.50;6.00;;;22.60;99.90;;;;;;5084994;28;20178;-87
2023/09/17 10:43:06;;;;;;;5.25;4.85;;;22.60;99.90;;;;;;5085048;28;20159;-86
2023/09/17 10:45:37;;;;;;;4.83;4.57;;;22.70;99.90;;;;;;5081482;28;20231;-86
2023/09/17 10:48:04;;;;;;;5.10;4.70;;;22.80;99.90;;;;;;5080204;28;20159;-86
2023/09/17 10:50:34;;;;;;;5.60;5.28;;;22.70;99.90;;;;;;5062224;28;20226;-83
2023/09/17 10:53:00;;;;;;;5.72;5.30;;;22.70;99.90;;;;;;5062975;28;20175;-83
2023/09/17 10:55:28;;;;;;;5.30;5.00;;;22.80;99.90;;;;;;5079589;28;20178;-84
2023/09/17 10:58:12;;;;;;;4.80;4.40;;;22.80;99.90;;;;;;5080643;28;20171;-82
2023/09/17 11:00:42;;;;;;;4.20;4.00;;;22.80;99.90;;;;;;5082320;28;20163;-77
2023/09/17 11:03:13;;;;;;;4.88;4.57;;;22.90;99.90;;;;;;5063925;28;20178;-83
2023/09/17 11:05:39;;;;;;;5.63;5.22;;;22.90;99.90;;;;;;5082893;28;20242;-82
2023/09/17 11:08:06;;;;;;;5.95;5.53;;;23.00;99.90;;;;;;5082066;28;20177;-82
2023/09/17 11:10:33;;;;;;;5.80;5.40;;;23.00;99.90;;;;;;5077333;28;20186;-78
2023/09/17 11:12:59;;;;;;;4.60;4.30;;;23.00;99.90;;;;;;5072028;28;20190;-83
2023/09/17 11:15:25;;;;;;;5.88;5.38;;;23.00;99.90;;;;;;5060041;28;20248;-80
2023/09/17 11:17:59;;;;;;;4.93;4.63;;;23.00;99.90;;;;;;5059041;28;20178;-77
2023/09/17 11:20:26;;;;;;;4.40;4.10;;;23.00;99.90;;;;;;5075958;28;20182;-82
2023/09/17 11:22:52;;;;;;;4.60;4.20;;;23.00;99.90;;;;;;5078752;28;20178;-78
2023/09/17 11:25:34;;;;;;;4.75;4.40;;;23.00;99.90;;;;;;5084158;28;20657;-83
2023/09/17 11:28:12;;;;;;;4.85;4.55;;;23.10;99.90;;;;;;5082190;28;20171;-82
2023/09/17 11:30:56;;;;;;;7.43;6.82;;;23.00;99.90;;;;;;5085878;28;20210;-77
2023/09/17 11:33:23;;;;;;;5.47;4.97;;;23.10;99.90;;;;;;5082113;28;20177;-78
2023/09/17 11:35:50;;;;;;;5.87;5.47;;;23.20;99.90;;;;;;5082275;28;20243;-79
2023/09/17 11:38:16;;;;;;;5.22;4.93;;;23.20;99.90;;;;;;5078399;28;20505;-80
2023/09/17 11:40:45;;;;;;;4.90;4.60;;;23.20;99.90;;;;;;5077299;28;20231;-82
2023/09/17 11:43:13;;;;;;;4.82;4.53;;;23.30;99.90;;;;;;5076799;28;20675;-81
2023/09/17 11:45:40;;;;;;;4.30;4.00;;;23.30;99.90;;;;;;5077159;28;20198;-81
2023/09/17 11:48:07;;;;;;;5.15;4.70;;;23.40;99.90;;;;;;5076617;28;20171;-81
2023/09/17 11:50:33;;;;;;;4.57;4.28;;;23.60;99.90;;;;;;5083061;28;20218;-79
2023/09/17 11:53:06;;;;;;;4.40;4.15;;;23.60;99.90;;;;;;5061275;28;20180;-84
2023/09/17 11:55:34;;;;;;;4.72;4.53;;;23.60;99.90;;;;;;5076386;28;20598;-81
2023/09/17 11:58:19;;;;;;;4.10;3.90;;;23.60;99.90;;;;;;5076836;28;20202;-83
2023/09/17 12:00:46;;;;;;;3.50;3.30;;;23.70;99.90;;;;;;5076404;28;20171;-81
2023/09/17 12:03:14;;;;;;;4.13;3.92;;;23.70;99.90;;;;;;5076499;28;20167;-81
2023/09/17 12:05:40;;;;;;;4.40;4.10;;;23.80;99.90;;;;;;5077351;28;20167;-81
2023/09/17 12:08:07;;;;;;;3.60;3.40;;;23.90;99.90;;;;;;5058968;28;20229;-83
2023/09/17 12:10:38;;;;;;;3.85;3.65;;;24.00;99.90;;;;;;5086626;28;20218;-84
2023/09/17 12:13:04;;;;;;;3.67;3.47;;;24.00;99.90;;;;;;5081662;28;20163;-80
2023/09/17 12:15:31;;;;;;;4.13;3.83;;;24.10;99.90;;;;;;5076678;28;20180;-83
2023/09/17 12:17:58;;;;;;;6.00;5.50;;;24.10;99.90;;;;;;5075253;28;20167;-83
2023/09/17 12:20:43;;;;;;;4.60;4.30;;;24.20;99.90;;;;;;5075087;28;20167;-76
2023/09/17 12:23:16;;;;;;;3.80;3.50;;;24.20;99.90;;;;;;5074807;28;20166;-78
2023/09/17 12:25:43;;;;;;;4.32;4.03;;;24.20;99.90;;;;;;5056854;28;20183;-81
2023/09/17 12:28:10;;;;;;;4.55;4.25;;;24.20;99.90;;;;;;5077765;28;20221;-76
2023/09/17 12:30:36;;;;;;;4.28;4.07;;;24.20;99.90;;;;;;5075477;28;20199;-77
2023/09/17 12:33:03;;;;;;;4.45;4.20;;;24.20;99.90;;;;;;5074532;28;20280;-79
2023/09/17 12:35:29;;;;;;;4.45;4.15;;;24.20;99.90;;;;;;5074476;28;20227;-78
2023/09/17 12:37:57;;;;;;;4.28;4.07;;;24.30;99.90;;;;;;5075858;28;20198;-78
2023/09/17 12:40:23;;;;;;;3.90;3.70;;;24.30;99.90;;;;;;5075804;28;20178;-78
2023/09/17 12:42:51;;;;;;;3.58;3.38;;;24.30;99.90;;;;;;5075471;28;20179;-78
2023/09/17 12:45:19;;;;;;;3.72;3.53;;;25.50;99.90;;;;;;5077356;28;20214;-77
2023/09/17 12:47:45;;;;;;;3.63;3.42;;;24.40;99.90;;;;;;5082276;28;20194;-78